sensor_id;sensor_type;location;lat;lon;timestamp;P1;durP1;ratioP1;P2;durP2;ratioP2
16403;SDS011;8311;50.158;8.642;2022-09-09T00:02:03;3.78;;;1.23;;
16403;SDS011;8311;50.158;8.642;2022-09-09T00:05:09;3.13;;;1.27;;
16403;SDS011;8311;50.158;8.642;2022-09-09T00:08:13;5.03;;;1.27;;
16403;SDS011;8311;50.158;8.642;2022-09-09T00:11:12;3.15;;;1.50;;
16403;SDS011;8311;50.158;8.642;2022-09-09T00:14:13;1.50;;;0.88;;
16403;SDS011;8311;50.158;8.642;2022-09-09T00:17:14;3.03;;;1.20;;
16403;SDS011;8311;50.158;8.642;2022-09-09T00:20:16;3.28;;;1.42;;
16403;SDS011;8311;50.158;8.642;2022-09-09T00:23:16;2.92;;;1.33;;
16403;SDS011;8311;50.158;8.642;2022-09-09T00:26:19;2.55;;;1.20;;
16403;SDS011;8311;50.158;8.642;2022-09-09T00:29:26;3.53;;;1.27;;
16403;SDS011;8311;50.158;8.642;2022-09-09T00:32:27;3.08;;;1.40;;
16403;SDS011;8311;50.158;8.642;2022-09-09T00:35:22;2.80;;;1.05;;
16403;SDS011;8311;50.158;8.642;2022-09-09T00:38:19;2.92;;;1.20;;
16403;SDS011;8311;50.158;8.642;2022-09-09T00:41:20;2.85;;;1.40;;
16403;SDS011;8311;50.158;8.642;2022-09-09T00:44:22;2.20;;;1.38;;
16403;SDS011;8311;50.158;8.642;2022-09-09T00:47:26;2.25;;;1.25;;
16403;SDS011;8311;50.158;8.642;2022-09-09T00:50:35;2.10;;;1.20;;
16403;SDS011;8311;50.158;8.642;2022-09-09T00:53:38;3.25;;;1.27;;
16403;SDS011;8311;50.158;8.642;2022-09-09T00:56:58;1.52;;;1.13;;
16403;SDS011;8311;50.158;8.642;2022-09-09T01:00:19;2.15;;;1.10;;
16403;SDS011;8311;50.158;8.642;2022-09-09T01:03:19;2.65;;;1.25;;
16403;SDS011;8311;50.158;8.642;2022-09-09T01:06:18;2.67;;;1.27;;
16403;SDS011;8311;50.158;8.642;2022-09-09T01:09:18;3.22;;;1.23;;
16403;SDS011;8311;50.158;8.642;2022-09-09T01:12:23;3.00;;;1.20;;
16403;SDS011;8311;50.158;8.642;2022-09-09T01:15:18;3.45;;;1.33;;
16403;SDS011;8311;50.158;8.642;2022-09-09T01:18:16;4.20;;;1.30;;
16403;SDS011;8311;50.158;8.642;2022-09-09T01:21:14;1.73;;;1.00;;
16403;SDS011;8311;50.158;8.642;2022-09-09T01:24:16;3.88;;;1.25;;
16403;SDS011;8311;50.158;8.642;2022-09-09T01:27:17;2.70;;;0.98;;
16403;SDS011;8311;50.158;8.642;2022-09-09T01:30:12;3.33;;;1.27;;
16403;SDS011;8311;50.158;8.642;2022-09-09T01:33:09;1.17;;;0.88;;
16403;SDS011;8311;50.158;8.642;2022-09-09T01:36:08;5.07;;;1.10;;
16403;SDS011;8311;50.158;8.642;2022-09-09T01:39:07;1.95;;;0.90;;
16403;SDS011;8311;50.158;8.642;2022-09-09T01:42:00;2.28;;;1.10;;
16403;SDS011;8311;50.158;8.642;2022-09-09T01:44:56;1.45;;;1.00;;
16403;SDS011;8311;50.158;8.642;2022-09-09T01:47:50;1.52;;;1.02;;
16403;SDS011;8311;50.158;8.642;2022-09-09T01:50:45;1.60;;;0.95;;
16403;SDS011;8311;50.158;8.642;2022-09-09T01:53:38;1.85;;;1.05;;
16403;SDS011;8311;50.158;8.642;2022-09-09T01:56:36;2.53;;;1.20;;
16403;SDS011;8311;50.158;8.642;2022-09-09T01:59:43;2.80;;;1.35;;
16403;SDS011;8311;50.158;8.642;2022-09-09T02:02:47;1.45;;;0.90;;
16403;SDS011;8311;50.158;8.642;2022-09-09T02:05:49;3.00;;;1.30;;
16403;SDS011;8311;50.158;8.642;2022-09-09T02:08:50;0.88;;;0.70;;
16403;SDS011;8311;50.158;8.642;2022-09-09T02:11:45;2.03;;;0.82;;
16403;SDS011;8311;50.158;8.642;2022-09-09T02:14:42;1.90;;;1.00;;
16403;SDS011;8311;50.158;8.642;2022-09-09T02:17:40;3.17;;;1.13;;
16403;SDS011;8311;50.158;8.642;2022-09-09T02:20:37;3.13;;;1.30;;
16403;SDS011;8311;50.158;8.642;2022-09-09T02:23:30;2.10;;;1.10;;
16403;SDS011;8311;50.158;8.642;2022-09-09T02:26:26;1.77;;;1.10;;
16403;SDS011;8311;50.158;8.642;2022-09-09T02:29:23;2.33;;;1.30;;
16403;SDS011;8311;50.158;8.642;2022-09-09T02:32:21;2.67;;;1.08;;
16403;SDS011;8311;50.158;8.642;2022-09-09T02:35:16;2.53;;;1.10;;
16403;SDS011;8311;50.158;8.642;2022-09-09T02:38:14;2.33;;;1.10;;
16403;SDS011;8311;50.158;8.642;2022-09-09T02:41:09;2.05;;;0.93;;
16403;SDS011;8311;50.158;8.642;2022-09-09T02:44:04;2.72;;;1.10;;
16403;SDS011;8311;50.158;8.642;2022-09-09T02:47:05;2.78;;;1.42;;
16403;SDS011;8311;50.158;8.642;2022-09-09T02:50:09;2.05;;;1.05;;
16403;SDS011;8311;50.158;8.642;2022-09-09T02:53:06;2.38;;;1.10;;
16403;SDS011;8311;50.158;8.642;2022-09-09T02:56:06;2.50;;;1.27;;
16403;SDS011;8311;50.158;8.642;2022-09-09T02:59:05;1.38;;;0.90;;
16403;SDS011;8311;50.158;8.642;2022-09-09T03:01:59;3.08;;;1.15;;
16403;SDS011;8311;50.158;8.642;2022-09-09T03:04:52;2.35;;;1.30;;
16403;SDS011;8311;50.158;8.642;2022-09-09T03:07:46;3.47;;;1.35;;
16403;SDS011;8311;50.158;8.642;2022-09-09T03:10:40;2.72;;;1.20;;
16403;SDS011;8311;50.158;8.642;2022-09-09T03:13:35;2.05;;;1.15;;
16403;SDS011;8311;50.158;8.642;2022-09-09T03:16:28;3.42;;;1.35;;
16403;SDS011;8311;50.158;8.642;2022-09-09T03:19:22;1.00;;;0.90;;
16403;SDS011;8311;50.158;8.642;2022-09-09T03:22:14;2.17;;;1.08;;
16403;SDS011;8311;50.158;8.642;2022-09-09T03:25:08;1.05;;;0.95;;
16403;SDS011;8311;50.158;8.642;2022-09-09T03:28:02;3.05;;;1.20;;
16403;SDS011;8311;50.158;8.642;2022-09-09T03:30:58;3.25;;;1.13;;
16403;SDS011;8311;50.158;8.642;2022-09-09T03:33:51;1.67;;;0.93;;
16403;SDS011;8311;50.158;8.642;2022-09-09T03:36:45;1.92;;;0.98;;
16403;SDS011;8311;50.158;8.642;2022-09-09T03:39:40;1.65;;;1.20;;
16403;SDS011;8311;50.158;8.642;2022-09-09T03:42:34;3.40;;;1.23;;
16403;SDS011;8311;50.158;8.642;2022-09-09T03:45:28;2.45;;;1.13;;
16403;SDS011;8311;50.158;8.642;2022-09-09T03:48:23;5.28;;;1.17;;
16403;SDS011;8311;50.158;8.642;2022-09-09T03:51:18;2.25;;;1.10;;
16403;SDS011;8311;50.158;8.642;2022-09-09T03:54:13;3.58;;;1.38;;
16403;SDS011;8311;50.158;8.642;2022-09-09T03:57:06;4.70;;;1.33;;
16403;SDS011;8311;50.158;8.642;2022-09-09T03:59:58;3.08;;;1.42;;
16403;SDS011;8311;50.158;8.642;2022-09-09T04:02:52;2.70;;;1.33;;
16403;SDS011;8311;50.158;8.642;2022-09-09T04:05:49;1.90;;;1.20;;
16403;SDS011;8311;50.158;8.642;2022-09-09T04:08:43;4.30;;;1.48;;
16403;SDS011;8311;50.158;8.642;2022-09-09T04:11:35;3.88;;;1.05;;
16403;SDS011;8311;50.158;8.642;2022-09-09T04:14:29;3.10;;;1.33;;
16403;SDS011;8311;50.158;8.642;2022-09-09T04:17:23;5.10;;;1.45;;
16403;SDS011;8311;50.158;8.642;2022-09-09T04:20:16;2.92;;;1.00;;
16403;SDS011;8311;50.158;8.642;2022-09-09T04:23:12;2.75;;;1.20;;
16403;SDS011;8311;50.158;8.642;2022-09-09T04:26:06;3.88;;;1.20;;
16403;SDS011;8311;50.158;8.642;2022-09-09T04:29:00;4.18;;;1.30;;
16403;SDS011;8311;50.158;8.642;2022-09-09T04:31:52;2.22;;;1.17;;
16403;SDS011;8311;50.158;8.642;2022-09-09T04:34:48;3.58;;;1.35;;
16403;SDS011;8311;50.158;8.642;2022-09-09T04:37:42;2.65;;;1.30;;
16403;SDS011;8311;50.158;8.642;2022-09-09T04:40:38;3.55;;;1.60;;
16403;SDS011;8311;50.158;8.642;2022-09-09T04:43:34;2.65;;;1.02;;
16403;SDS011;8311;50.158;8.642;2022-09-09T04:46:29;4.05;;;1.45;;
16403;SDS011;8311;50.158;8.642;2022-09-09T04:49:22;1.90;;;1.17;;
16403;SDS011;8311;50.158;8.642;2022-09-09T04:52:16;5.25;;;1.17;;
16403;SDS011;8311;50.158;8.642;2022-09-09T04:55:09;3.08;;;1.58;;
16403;SDS011;8311;50.158;8.642;2022-09-09T04:58:05;2.63;;;1.35;;
16403;SDS011;8311;50.158;8.642;2022-09-09T05:01:05;2.70;;;1.70;;
16403;SDS011;8311;50.158;8.642;2022-09-09T05:03:59;4.45;;;1.50;;
16403;SDS011;8311;50.158;8.642;2022-09-09T05:06:52;3.33;;;1.45;;
16403;SDS011;8311;50.158;8.642;2022-09-09T05:09:45;3.47;;;1.27;;
16403;SDS011;8311;50.158;8.642;2022-09-09T05:12:40;2.95;;;1.17;;
16403;SDS011;8311;50.158;8.642;2022-09-09T05:15:35;3.85;;;1.60;;
16403;SDS011;8311;50.158;8.642;2022-09-09T05:18:29;2.42;;;1.20;;
16403;SDS011;8311;50.158;8.642;2022-09-09T05:21:23;3.28;;;1.45;;
16403;SDS011;8311;50.158;8.642;2022-09-09T05:24:18;3.80;;;1.63;;
16403;SDS011;8311;50.158;8.642;2022-09-09T05:27:11;2.88;;;1.30;;
16403;SDS011;8311;50.158;8.642;2022-09-09T05:30:04;2.88;;;1.30;;
16403;SDS011;8311;50.158;8.642;2022-09-09T05:32:59;3.58;;;1.60;;
16403;SDS011;8311;50.158;8.642;2022-09-09T05:35:59;3.70;;;1.35;;
16403;SDS011;8311;50.158;8.642;2022-09-09T05:38:54;1.90;;;1.27;;
16403;SDS011;8311;50.158;8.642;2022-09-09T05:41:47;5.15;;;1.50;;
16403;SDS011;8311;50.158;8.642;2022-09-09T05:44:40;3.35;;;1.40;;
16403;SDS011;8311;50.158;8.642;2022-09-09T05:47:34;1.95;;;1.17;;
16403;SDS011;8311;50.158;8.642;2022-09-09T05:50:30;4.00;;;1.48;;
16403;SDS011;8311;50.158;8.642;2022-09-09T05:53:23;3.35;;;1.48;;
16403;SDS011;8311;50.158;8.642;2022-09-09T05:56:17;1.58;;;1.25;;
16403;SDS011;8311;50.158;8.642;2022-09-09T05:59:13;2.28;;;1.30;;
16403;SDS011;8311;50.158;8.642;2022-09-09T06:02:07;3.28;;;1.45;;
16403;SDS011;8311;50.158;8.642;2022-09-09T06:05:01;4.78;;;1.60;;
16403;SDS011;8311;50.158;8.642;2022-09-09T06:07:55;1.98;;;1.27;;
16403;SDS011;8311;50.158;8.642;2022-09-09T06:10:51;2.53;;;1.17;;
16403;SDS011;8311;50.158;8.642;2022-09-09T06:13:45;5.40;;;1.70;;
16403;SDS011;8311;50.158;8.642;2022-09-09T06:16:39;4.60;;;1.65;;
16403;SDS011;8311;50.158;8.642;2022-09-09T06:19:35;2.92;;;1.65;;
16403;SDS011;8311;50.158;8.642;2022-09-09T06:22:28;5.60;;;1.67;;
16403;SDS011;8311;50.158;8.642;2022-09-09T06:25:22;4.72;;;1.55;;
16403;SDS011;8311;50.158;8.642;2022-09-09T06:28:15;2.60;;;1.45;;
16403;SDS011;8311;50.158;8.642;2022-09-09T06:31:09;6.10;;;1.70;;
16403;SDS011;8311;50.158;8.642;2022-09-09T06:34:05;4.18;;;1.52;;
16403;SDS011;8311;50.158;8.642;2022-09-09T06:36:59;6.38;;;1.60;;
16403;SDS011;8311;50.158;8.642;2022-09-09T06:39:52;2.60;;;1.40;;
16403;SDS011;8311;50.158;8.642;2022-09-09T06:42:47;4.68;;;1.27;;
16403;SDS011;8311;50.158;8.642;2022-09-09T06:45:40;4.57;;;1.63;;
16403;SDS011;8311;50.158;8.642;2022-09-09T06:48:34;6.15;;;1.58;;
16403;SDS011;8311;50.158;8.642;2022-09-09T06:51:29;3.50;;;1.20;;
16403;SDS011;8311;50.158;8.642;2022-09-09T06:54:24;3.72;;;1.40;;
16403;SDS011;8311;50.158;8.642;2022-09-09T06:57:17;2.65;;;1.50;;
16403;SDS011;8311;50.158;8.642;2022-09-09T07:00:28;3.25;;;1.20;;
16403;SDS011;8311;50.158;8.642;2022-09-09T07:03:22;2.60;;;1.35;;
16403;SDS011;8311;50.158;8.642;2022-09-09T07:06:16;2.80;;;1.30;;
16403;SDS011;8311;50.158;8.642;2022-09-09T07:09:12;3.25;;;1.30;;
16403;SDS011;8311;50.158;8.642;2022-09-09T07:12:06;3.28;;;1.42;;
16403;SDS011;8311;50.158;8.642;2022-09-09T07:14:59;4.30;;;1.23;;
16403;SDS011;8311;50.158;8.642;2022-09-09T07:17:53;4.90;;;1.50;;
16403;SDS011;8311;50.158;8.642;2022-09-09T07:20:52;3.75;;;1.60;;
16403;SDS011;8311;50.158;8.642;2022-09-09T07:23:45;3.85;;;1.60;;
16403;SDS011;8311;50.158;8.642;2022-09-09T07:26:39;5.07;;;1.30;;
16403;SDS011;8311;50.158;8.642;2022-09-09T07:29:33;4.80;;;1.30;;
16403;SDS011;8311;50.158;8.642;2022-09-09T07:32:26;3.55;;;1.30;;
16403;SDS011;8311;50.158;8.642;2022-09-09T07:35:20;4.30;;;1.50;;
16403;SDS011;8311;50.158;8.642;2022-09-09T07:38:13;2.88;;;1.20;;
16403;SDS011;8311;50.158;8.642;2022-09-09T07:41:07;1.98;;;1.10;;
16403;SDS011;8311;50.158;8.642;2022-09-09T07:44:04;3.58;;;1.25;;
16403;SDS011;8311;50.158;8.642;2022-09-09T07:46:58;4.75;;;1.30;;
16403;SDS011;8311;50.158;8.642;2022-09-09T07:49:51;2.50;;;1.10;;
16403;SDS011;8311;50.158;8.642;2022-09-09T07:52:45;3.13;;;1.25;;
16403;SDS011;8311;50.158;8.642;2022-09-09T07:55:39;3.40;;;1.08;;
16403;SDS011;8311;50.158;8.642;2022-09-09T07:58:32;6.70;;;1.25;;
16403;SDS011;8311;50.158;8.642;2022-09-09T08:01:30;2.03;;;1.10;;
16403;SDS011;8311;50.158;8.642;2022-09-09T08:04:24;2.85;;;1.20;;
16403;SDS011;8311;50.158;8.642;2022-09-09T08:07:19;0.73;;;0.70;;
16403;SDS011;8311;50.158;8.642;2022-09-09T08:10:14;5.20;;;1.35;;
16403;SDS011;8311;50.158;8.642;2022-09-09T08:13:08;3.33;;;1.20;;
16403;SDS011;8311;50.158;8.642;2022-09-09T08:16:10;3.35;;;1.10;;
16403;SDS011;8311;50.158;8.642;2022-09-09T08:19:06;3.33;;;1.20;;
16403;SDS011;8311;50.158;8.642;2022-09-09T08:22:01;2.80;;;1.02;;
16403;SDS011;8311;50.158;8.642;2022-09-09T08:24:55;2.90;;;1.10;;
16403;SDS011;8311;50.158;8.642;2022-09-09T08:27:50;3.40;;;1.20;;
16403;SDS011;8311;50.158;8.642;2022-09-09T08:30:45;2.63;;;1.00;;
16403;SDS011;8311;50.158;8.642;2022-09-09T08:33:39;2.42;;;1.00;;
16403;SDS011;8311;50.158;8.642;2022-09-09T08:36:34;3.33;;;1.15;;
16403;SDS011;8311;50.158;8.642;2022-09-09T08:39:28;4.50;;;1.17;;
16403;SDS011;8311;50.158;8.642;2022-09-09T08:42:23;3.25;;;1.30;;
16403;SDS011;8311;50.158;8.642;2022-09-09T08:45:31;2.90;;;1.33;;
16403;SDS011;8311;50.158;8.642;2022-09-09T08:48:36;3.60;;;1.33;;
16403;SDS011;8311;50.158;8.642;2022-09-09T08:51:37;3.33;;;1.42;;
16403;SDS011;8311;50.158;8.642;2022-09-09T08:54:32;3.45;;;1.50;;
16403;SDS011;8311;50.158;8.642;2022-09-09T08:57:43;2.72;;;1.25;;
16403;SDS011;8311;50.158;8.642;2022-09-09T09:00:40;3.22;;;1.45;;
16403;SDS011;8311;50.158;8.642;2022-09-09T09:03:41;2.88;;;1.50;;
16403;SDS011;8311;50.158;8.642;2022-09-09T09:06:44;3.58;;;1.48;;
16403;SDS011;8311;50.158;8.642;2022-09-09T09:09:47;3.20;;;1.30;;
16403;SDS011;8311;50.158;8.642;2022-09-09T09:12:50;2.28;;;1.08;;
16403;SDS011;8311;50.158;8.642;2022-09-09T09:15:46;2.13;;;1.00;;
16403;SDS011;8311;50.158;8.642;2022-09-09T09:18:43;3.65;;;1.20;;
16403;SDS011;8311;50.158;8.642;2022-09-09T09:21:37;3.83;;;1.45;;
16403;SDS011;8311;50.158;8.642;2022-09-09T09:24:37;2.28;;;1.20;;
16403;SDS011;8311;50.158;8.642;2022-09-09T09:27:35;5.38;;;1.50;;
16403;SDS011;8311;50.158;8.642;2022-09-09T09:30:34;4.03;;;1.38;;
16403;SDS011;8311;50.158;8.642;2022-09-09T09:33:32;3.05;;;1.30;;
16403;SDS011;8311;50.158;8.642;2022-09-09T09:36:33;5.93;;;1.58;;
16403;SDS011;8311;50.158;8.642;2022-09-09T09:39:27;3.15;;;1.52;;
16403;SDS011;8311;50.158;8.642;2022-09-09T09:42:48;3.97;;;1.63;;
16403;SDS011;8311;50.158;8.642;2022-09-09T09:45:44;4.32;;;1.45;;
16403;SDS011;8311;50.158;8.642;2022-09-09T09:48:59;3.45;;;1.52;;
16403;SDS011;8311;50.158;8.642;2022-09-09T09:51:53;6.32;;;1.58;;
16403;SDS011;8311;50.158;8.642;2022-09-09T09:54:53;4.28;;;1.55;;
16403;SDS011;8311;50.158;8.642;2022-09-09T09:57:48;7.32;;;1.48;;
16403;SDS011;8311;50.158;8.642;2022-09-09T10:00:46;3.58;;;1.25;;
16403;SDS011;8311;50.158;8.642;2022-09-09T10:03:49;1.52;;;1.10;;
16403;SDS011;8311;50.158;8.642;2022-09-09T10:06:44;2.58;;;1.17;;
16403;SDS011;8311;50.158;8.642;2022-09-09T10:09:38;1.80;;;1.13;;
16403;SDS011;8311;50.158;8.642;2022-09-09T10:12:36;3.35;;;1.30;;
16403;SDS011;8311;50.158;8.642;2022-09-09T10:15:39;4.05;;;1.63;;
16403;SDS011;8311;50.158;8.642;2022-09-09T10:18:44;4.78;;;1.30;;
16403;SDS011;8311;50.158;8.642;2022-09-09T10:22:04;3.75;;;1.58;;
16403;SDS011;8311;50.158;8.642;2022-09-09T10:25:17;2.42;;;1.15;;
16403;SDS011;8311;50.158;8.642;2022-09-09T10:28:30;4.60;;;1.40;;
16403;SDS011;8311;50.158;8.642;2022-09-09T10:31:33;2.80;;;1.27;;
16403;SDS011;8311;50.158;8.642;2022-09-09T10:34:37;3.60;;;1.50;;
16403;SDS011;8311;50.158;8.642;2022-09-09T10:37:53;2.67;;;1.25;;
16403;SDS011;8311;50.158;8.642;2022-09-09T10:41:13;5.78;;;1.80;;
16403;SDS011;8311;50.158;8.642;2022-09-09T10:44:22;4.50;;;1.50;;
16403;SDS011;8311;50.158;8.642;2022-09-09T10:47:41;6.50;;;1.65;;
16403;SDS011;8311;50.158;8.642;2022-09-09T10:50:52;3.53;;;1.42;;
16403;SDS011;8311;50.158;8.642;2022-09-09T10:54:02;5.95;;;1.90;;
16403;SDS011;8311;50.158;8.642;2022-09-09T10:57:05;4.32;;;1.75;;
16403;SDS011;8311;50.158;8.642;2022-09-09T11:00:06;4.35;;;1.50;;
16403;SDS011;8311;50.158;8.642;2022-09-09T11:03:09;3.22;;;1.73;;
16403;SDS011;8311;50.158;8.642;2022-09-09T11:06:11;4.32;;;1.40;;
16403;SDS011;8311;50.158;8.642;2022-09-09T11:09:09;5.22;;;1.48;;
16403;SDS011;8311;50.158;8.642;2022-09-09T11:12:09;4.47;;;1.52;;
16403;SDS011;8311;50.158;8.642;2022-09-09T11:15:13;4.63;;;1.30;;
16403;SDS011;8311;50.158;8.642;2022-09-09T11:18:10;4.15;;;1.35;;
16403;SDS011;8311;50.158;8.642;2022-09-09T11:21:09;3.92;;;1.67;;
16403;SDS011;8311;50.158;8.642;2022-09-09T11:24:11;4.15;;;1.35;;
16403;SDS011;8311;50.158;8.642;2022-09-09T11:27:12;4.80;;;1.67;;
16403;SDS011;8311;50.158;8.642;2022-09-09T11:33:58;2.65;;;1.20;;
16403;SDS011;8311;50.158;8.642;2022-09-09T11:37:17;8.38;;;1.55;;
16403;SDS011;8311;50.158;8.642;2022-09-09T11:40:24;2.65;;;1.27;;
16403;SDS011;8311;50.158;8.642;2022-09-09T11:43:20;4.85;;;1.80;;
16403;SDS011;8311;50.158;8.642;2022-09-09T11:46:16;4.45;;;1.50;;
16403;SDS011;8311;50.158;8.642;2022-09-09T11:49:26;3.60;;;1.42;;
16403;SDS011;8311;50.158;8.642;2022-09-09T11:52:21;4.53;;;1.65;;
16403;SDS011;8311;50.158;8.642;2022-09-09T11:55:25;2.75;;;1.17;;
16403;SDS011;8311;50.158;8.642;2022-09-09T11:58:21;3.78;;;1.40;;
16403;SDS011;8311;50.158;8.642;2022-09-09T12:01:16;3.55;;;1.48;;
16403;SDS011;8311;50.158;8.642;2022-09-09T12:04:33;3.97;;;1.35;;
16403;SDS011;8311;50.158;8.642;2022-09-09T12:07:32;1.95;;;0.80;;
16403;SDS011;8311;50.158;8.642;2022-09-09T12:10:30;2.85;;;1.13;;
16403;SDS011;8311;50.158;8.642;2022-09-09T12:13:26;2.38;;;0.90;;
16403;SDS011;8311;50.158;8.642;2022-09-09T12:16:27;2.25;;;1.25;;
16403;SDS011;8311;50.158;8.642;2022-09-09T12:19:22;2.88;;;1.20;;
16403;SDS011;8311;50.158;8.642;2022-09-09T12:22:21;1.95;;;1.00;;
16403;SDS011;8311;50.158;8.642;2022-09-09T12:25:26;1.60;;;0.90;;
16403;SDS011;8311;50.158;8.642;2022-09-09T12:28:37;2.63;;;1.05;;
16403;SDS011;8311;50.158;8.642;2022-09-09T12:31:39;2.42;;;1.10;;
16403;SDS011;8311;50.158;8.642;2022-09-09T12:34:38;1.92;;;1.10;;
16403;SDS011;8311;50.158;8.642;2022-09-09T12:37:33;2.20;;;0.98;;
16403;SDS011;8311;50.158;8.642;2022-09-09T12:40:29;2.58;;;1.20;;
16403;SDS011;8311;50.158;8.642;2022-09-09T12:43:25;1.30;;;0.93;;
16403;SDS011;8311;50.158;8.642;2022-09-09T12:46:21;2.72;;;1.10;;
16403;SDS011;8311;50.158;8.642;2022-09-09T12:49:29;2.80;;;1.13;;
16403;SDS011;8311;50.158;8.642;2022-09-09T12:52:27;2.13;;;1.25;;
16403;SDS011;8311;50.158;8.642;2022-09-09T12:55:24;2.72;;;1.23;;
16403;SDS011;8311;50.158;8.642;2022-09-09T12:58:21;3.08;;;1.27;;
16403;SDS011;8311;50.158;8.642;2022-09-09T13:01:20;4.38;;;1.40;;
16403;SDS011;8311;50.158;8.642;2022-09-09T13:04:19;1.77;;;0.93;;
16403;SDS011;8311;50.158;8.642;2022-09-09T13:07:13;1.80;;;0.93;;
16403;SDS011;8311;50.158;8.642;2022-09-09T13:10:10;1.13;;;0.80;;
16403;SDS011;8311;50.158;8.642;2022-09-09T13:13:17;0.90;;;0.82;;
16403;SDS011;8311;50.158;8.642;2022-09-09T13:16:22;2.05;;;1.08;;
16403;SDS011;8311;50.158;8.642;2022-09-09T13:19:23;3.03;;;1.20;;
16403;SDS011;8311;50.158;8.642;2022-09-09T13:22:20;2.10;;;0.93;;
16403;SDS011;8311;50.158;8.642;2022-09-09T13:25:19;1.17;;;0.80;;
16403;SDS011;8311;50.158;8.642;2022-09-09T13:28:20;1.48;;;1.00;;
16403;SDS011;8311;50.158;8.642;2022-09-09T13:31:19;1.25;;;0.98;;
16403;SDS011;8311;50.158;8.642;2022-09-09T13:34:25;1.92;;;0.95;;
16403;SDS011;8311;50.158;8.642;2022-09-09T13:37:22;2.95;;;1.10;;
16403;SDS011;8311;50.158;8.642;2022-09-09T13:40:19;2.67;;;1.30;;
16403;SDS011;8311;50.158;8.642;2022-09-09T13:43:18;2.92;;;0.93;;
16403;SDS011;8311;50.158;8.642;2022-09-09T13:46:24;2.78;;;1.10;;
16403;SDS011;8311;50.158;8.642;2022-09-09T13:49:22;2.78;;;1.00;;
16403;SDS011;8311;50.158;8.642;2022-09-09T13:52:17;1.38;;;0.82;;
16403;SDS011;8311;50.158;8.642;2022-09-09T13:55:11;1.27;;;0.90;;
16403;SDS011;8311;50.158;8.642;2022-09-09T13:58:04;1.17;;;0.90;;
16403;SDS011;8311;50.158;8.642;2022-09-09T14:00:58;1.98;;;0.93;;
16403;SDS011;8311;50.158;8.642;2022-09-09T14:03:52;2.22;;;1.10;;
16403;SDS011;8311;50.158;8.642;2022-09-09T14:06:45;1.40;;;0.80;;
16403;SDS011;8311;50.158;8.642;2022-09-09T14:09:38;1.73;;;0.82;;
16403;SDS011;8311;50.158;8.642;2022-09-09T14:12:32;2.38;;;0.80;;
16403;SDS011;8311;50.158;8.642;2022-09-09T14:15:27;2.05;;;1.00;;
16403;SDS011;8311;50.158;8.642;2022-09-09T14:18:20;2.08;;;0.82;;
16403;SDS011;8311;50.158;8.642;2022-09-09T14:21:15;1.52;;;0.90;;
16403;SDS011;8311;50.158;8.642;2022-09-09T14:24:08;1.63;;;0.77;;
16403;SDS011;8311;50.158;8.642;2022-09-09T14:27:01;1.60;;;0.70;;
16403;SDS011;8311;50.158;8.642;2022-09-09T14:29:54;2.97;;;0.95;;
16403;SDS011;8311;50.158;8.642;2022-09-09T14:32:47;1.42;;;0.80;;
16403;SDS011;8311;50.158;8.642;2022-09-09T14:35:40;1.83;;;0.90;;
16403;SDS011;8311;50.158;8.642;2022-09-09T14:38:36;1.02;;;0.80;;
16403;SDS011;8311;50.158;8.642;2022-09-09T14:41:30;0.95;;;0.70;;
16403;SDS011;8311;50.158;8.642;2022-09-09T14:44:23;1.38;;;0.80;;
16403;SDS011;8311;50.158;8.642;2022-09-09T14:47:17;1.98;;;0.75;;
16403;SDS011;8311;50.158;8.642;2022-09-09T14:50:10;1.65;;;0.85;;
16403;SDS011;8311;50.158;8.642;2022-09-09T14:53:05;1.58;;;0.70;;
16403;SDS011;8311;50.158;8.642;2022-09-09T14:56:04;2.10;;;1.00;;
16403;SDS011;8311;50.158;8.642;2022-09-09T14:58:58;2.20;;;0.70;;
16403;SDS011;8311;50.158;8.642;2022-09-09T15:01:52;1.55;;;0.70;;
16403;SDS011;8311;50.158;8.642;2022-09-09T15:04:46;0.60;;;0.50;;
16403;SDS011;8311;50.158;8.642;2022-09-09T15:07:41;1.10;;;0.63;;
16403;SDS011;8311;50.158;8.642;2022-09-09T15:10:34;1.15;;;0.80;;
16403;SDS011;8311;50.158;8.642;2022-09-09T15:13:30;2.10;;;0.80;;
16403;SDS011;8311;50.158;8.642;2022-09-09T15:16:24;2.28;;;0.80;;
16403;SDS011;8311;50.158;8.642;2022-09-09T15:19:18;1.50;;;0.82;;
16403;SDS011;8311;50.158;8.642;2022-09-09T15:22:11;2.60;;;0.88;;
16403;SDS011;8311;50.158;8.642;2022-09-09T15:25:04;1.17;;;0.77;;
16403;SDS011;8311;50.158;8.642;2022-09-09T15:27:58;0.98;;;0.70;;
16403;SDS011;8311;50.158;8.642;2022-09-09T15:30:53;0.63;;;0.63;;
16403;SDS011;8311;50.158;8.642;2022-09-09T15:33:48;0.88;;;0.65;;
16403;SDS011;8311;50.158;8.642;2022-09-09T15:36:43;1.88;;;0.70;;
16403;SDS011;8311;50.158;8.642;2022-09-09T15:39:37;1.10;;;0.70;;
16403;SDS011;8311;50.158;8.642;2022-09-09T15:42:30;1.27;;;0.70;;
16403;SDS011;8311;50.158;8.642;2022-09-09T15:45:23;1.52;;;0.60;;
16403;SDS011;8311;50.158;8.642;2022-09-09T15:48:19;2.33;;;1.00;;
16403;SDS011;8311;50.158;8.642;2022-09-09T15:51:15;1.05;;;0.52;;
16403;SDS011;8311;50.158;8.642;2022-09-09T15:54:31;1.55;;;0.80;;
16403;SDS011;8311;50.158;8.642;2022-09-09T15:57:25;0.70;;;0.60;;
16403;SDS011;8311;50.158;8.642;2022-09-09T16:00:19;0.93;;;0.75;;
16403;SDS011;8311;50.158;8.642;2022-09-09T16:03:13;1.08;;;0.70;;
16403;SDS011;8311;50.158;8.642;2022-09-09T16:06:08;1.88;;;0.80;;
16403;SDS011;8311;50.158;8.642;2022-09-09T16:09:02;1.20;;;0.65;;
16403;SDS011;8311;50.158;8.642;2022-09-09T16:11:57;1.30;;;0.80;;
16403;SDS011;8311;50.158;8.642;2022-09-09T16:14:52;1.10;;;0.68;;
16403;SDS011;8311;50.158;8.642;2022-09-09T16:17:46;1.25;;;0.63;;
16403;SDS011;8311;50.158;8.642;2022-09-09T16:20:39;1.00;;;0.63;;
16403;SDS011;8311;50.158;8.642;2022-09-09T16:23:34;0.90;;;0.70;;
16403;SDS011;8311;50.158;8.642;2022-09-09T16:26:27;1.05;;;0.70;;
16403;SDS011;8311;50.158;8.642;2022-09-09T16:29:23;0.60;;;0.60;;
16403;SDS011;8311;50.158;8.642;2022-09-09T16:32:18;1.25;;;0.70;;
16403;SDS011;8311;50.158;8.642;2022-09-09T16:35:11;1.40;;;0.68;;
16403;SDS011;8311;50.158;8.642;2022-09-09T16:38:04;1.60;;;0.60;;
16403;SDS011;8311;50.158;8.642;2022-09-09T16:41:00;1.60;;;0.68;;
16403;SDS011;8311;50.158;8.642;2022-09-09T16:43:53;1.33;;;0.68;;
16403;SDS011;8311;50.158;8.642;2022-09-09T16:46:49;0.80;;;0.57;;
16403;SDS011;8311;50.158;8.642;2022-09-09T16:49:50;0.88;;;0.63;;
16403;SDS011;8311;50.158;8.642;2022-09-09T16:52:43;2.03;;;1.02;;
16403;SDS011;8311;50.158;8.642;2022-09-09T16:55:40;1.73;;;0.70;;
16403;SDS011;8311;50.158;8.642;2022-09-09T16:58:34;2.28;;;0.80;;
16403;SDS011;8311;50.158;8.642;2022-09-09T17:01:29;1.65;;;0.70;;
16403;SDS011;8311;50.158;8.642;2022-09-09T17:04:26;1.63;;;0.70;;
16403;SDS011;8311;50.158;8.642;2022-09-09T17:07:19;2.05;;;0.70;;
16403;SDS011;8311;50.158;8.642;2022-09-09T17:10:13;2.25;;;0.80;;
16403;SDS011;8311;50.158;8.642;2022-09-09T17:13:06;1.45;;;0.70;;
16403;SDS011;8311;50.158;8.642;2022-09-09T17:16:03;1.77;;;0.90;;
16403;SDS011;8311;50.158;8.642;2022-09-09T17:18:57;2.13;;;0.73;;
16403;SDS011;8311;50.158;8.642;2022-09-09T17:21:51;1.50;;;0.95;;
16403;SDS011;8311;50.158;8.642;2022-09-09T17:25:05;1.33;;;0.80;;
16403;SDS011;8311;50.158;8.642;2022-09-09T17:27:59;4.18;;;1.10;;
16403;SDS011;8311;50.158;8.642;2022-09-09T17:30:52;2.28;;;1.17;;
16403;SDS011;8311;50.158;8.642;2022-09-09T17:33:47;1.40;;;0.82;;
16403;SDS011;8311;50.158;8.642;2022-09-09T17:36:41;3.13;;;1.05;;
16403;SDS011;8311;50.158;8.642;2022-09-09T17:39:34;2.28;;;1.05;;
16403;SDS011;8311;50.158;8.642;2022-09-09T17:42:27;3.17;;;1.02;;
16403;SDS011;8311;50.158;8.642;2022-09-09T17:45:20;1.70;;;0.90;;
16403;SDS011;8311;50.158;8.642;2022-09-09T17:48:14;2.10;;;0.90;;
16403;SDS011;8311;50.158;8.642;2022-09-09T17:51:09;2.67;;;0.80;;
16403;SDS011;8311;50.158;8.642;2022-09-09T17:54:05;1.17;;;0.60;;
16403;SDS011;8311;50.158;8.642;2022-09-09T17:57:01;1.83;;;0.85;;
16403;SDS011;8311;50.158;8.642;2022-09-09T17:59:54;3.53;;;1.17;;
16403;SDS011;8311;50.158;8.642;2022-09-09T18:02:47;4.13;;;1.00;;
16403;SDS011;8311;50.158;8.642;2022-09-09T18:05:40;2.35;;;1.17;;
16403;SDS011;8311;50.158;8.642;2022-09-09T18:08:35;1.42;;;0.80;;